Time;durP1;ratioP1;P1;durP2;ratioP2;P2;SDS_P1;SDS_P2;PMS_P1;PMS_P2;Temp;Humidity;BMP_temperature;BMP_pressure;BME280_temperature;BME280_humidity;BME280_pressure;Samples;Min_cycle;Max_cycle;Signal;HPM_P1;HPM_P2
2021/10/03 09:46:50;;;;;;;21.95;9.10;;;;;;;;;;5108433;27;20136;-65
2021/10/03 09:49:18;;;;;;;17.85;8.82;;;;;;;;;;5108410;28;20501;-65
2021/10/03 09:51:45;;;;;;;16.55;7.70;;;;;;;;;;5108536;28;20115;-66
2021/10/03 09:54:12;;;;;;;20.02;9.18;;;;;;;;;;5108365;28;20110;-66
2021/10/03 09:56:40;;;;;;;19.77;9.15;;;;;;;;;;5108215;28;20103;-65
2021/10/03 09:59:06;;;;;;;17.70;8.07;;;;;;;;;;5108225;28;20456;-64
2021/10/03 10:01:33;;;;;;;17.38;8.80;;;;;;;;;;5107040;28;20466;-64
2021/10/03 10:04:00;;;;;;;18.45;8.90;;;;;;;;;;5107063;28;20438;-65
2021/10/03 10:06:26;;;;;;;16.88;7.65;;;;;;;;;;5108020;28;20372;-64
2021/10/03 10:08:55;;;;;;;16.65;7.68;;;;;;;;;;5107819;27;20020;-64
2021/10/03 10:11:40;;;;;;;17.35;8.25;;;;;;;;;;5108361;28;20016;-64
2021/10/03 10:14:07;;;;;;;17.05;7.18;;;;;;;;;;5108297;28;20082;-65
2021/10/03 10:16:44;;;;;;;18.38;8.63;;;;;;;;;;5107784;28;20400;-64
2021/10/03 10:19:29;;;;;;;17.88;7.55;;;;;;;;;;5107722;28;20024;-65
2021/10/03 10:22:16;;;;;;;17.27;9.00;;;;;;;;;;5108267;28;20430;-65
2021/10/03 10:24:46;;;;;;;18.20;9.85;;;;;;;;;;5092604;28;20024;-63
2021/10/03 10:27:29;;;;;;;18.80;10.63;;;;;;;;;;5087863;28;20028;-63
2021/10/03 10:29:59;;;;;;;18.83;10.38;;;;;;;;;;5087258;28;20020;-63
2021/10/03 10:32:33;;;;;;;18.27;9.93;;;;;;;;;;5105342;28;20039;-63
2021/10/03 10:35:08;;;;;;;18.60;10.07;;;;;;;;;;5109957;28;20031;-63
2021/10/03 10:37:50;;;;;;;18.80;10.13;;;;;;;;;;5110735;28;20024;-63
2021/10/03 10:40:22;;;;;;;18.52;11.23;;;;;;;;;;5111103;28;20107;-64
2021/10/03 10:42:48;;;;;;;18.33;10.80;;;;;;;;;;5110026;28;20528;-63
2021/10/03 10:45:35;;;;;;;18.10;9.82;;;;;;;;;;5109150;28;20036;-64
2021/10/03 10:48:07;;;;;;;16.60;8.70;;;;;;;;;;5111168;28;20012;-63
2021/10/03 10:50:34;;;;;;;19.25;11.35;;;;;;;;;;5111143;28;20299;-63
2021/10/03 10:53:15;;;;;;;18.80;10.63;;;;;;;;;;5112374;28;20043;-64
2021/10/03 10:55:41;;;;;;;19.30;12.98;;;;;;;;;;5113949;28;20043;-62
2021/10/03 10:58:08;;;;;;;19.77;11.90;;;;;;;;;;5095941;28;20039;-63
2021/10/03 11:00:46;;;;;;;18.20;12.15;;;;;;;;;;5096087;28;20069;-62
2021/10/03 11:03:12;;;;;;;18.77;12.07;;;;;;;;;;5095522;28;20525;-62
2021/10/03 11:05:39;;;;;;;17.45;11.30;;;;;;;;;;5094459;28;20403;-63
2021/10/03 11:08:19;;;;;;;18.13;11.73;;;;;;;;;;5095372;28;20043;-58
2021/10/03 11:10:57;;;;;;;19.05;12.38;;;;;;;;;;5095294;28;20028;-66
2021/10/03 11:13:23;;;;;;;;;;;;;;;;;;5094190;28;20057;-64
2021/10/03 11:15:49;;;;;;;17.73;11.90;;;;;;;;;;5093574;28;19904;-62
2021/10/03 11:18:15;;;;;;;19.55;13.05;;;;;;;;;;5091968;28;20128;-60
2021/10/03 11:20:48;;;;;;;19.63;13.45;;;;;;;;;;5092223;28;20081;-63
2021/10/03 11:23:19;;;;;;;17.88;11.70;;;;;;;;;;5076254;28;20119;-64
2021/10/03 11:25:45;;;;;;;19.40;11.98;;;;;;;;;;5103252;22;20041;-60
2021/10/03 11:28:11;;;;;;;19.65;11.00;;;;;;;;;;5071582;28;20027;-57
2021/10/03 11:30:53;;;;;;;18.42;11.38;;;;;;;;;;5073604;28;20020;-58
2021/10/03 11:33:19;;;;;;;21.25;11.27;;;;;;;;;;5073021;28;20044;-58
2021/10/03 11:35:45;;;;;;;18.83;11.02;;;;;;;;;;5075094;28;20468;-59
2021/10/03 11:38:11;;;;;;;18.83;10.32;;;;;;;;;;5081539;28;20028;-55
2021/10/03 11:40:37;;;;;;;18.50;10.55;;;;;;;;;;5083140;28;20476;-60
2021/10/03 11:43:03;;;;;;;19.40;11.40;;;;;;;;;;5081700;28;20028;-59
2021/10/03 11:45:33;;;;;;;18.40;10.43;;;;;;;;;;5084229;28;20027;-59
2021/10/03 11:48:01;;;;;;;18.00;10.05;;;;;;;;;;5083982;28;20480;-58
2021/10/03 11:50:27;;;;;;;17.73;10.60;;;;;;;;;;5089424;28;20028;-57
2021/10/03 11:52:55;;;;;;;19.02;10.57;;;;;;;;;;5093692;28;20032;-59
2021/10/03 11:55:23;;;;;;;18.20;10.90;;;;;;;;;;5093498;28;20016;-57
2021/10/03 11:57:50;;;;;;;16.77;9.75;;;;;;;;;;5093626;28;20046;-58
2021/10/03 12:00:25;;;;;;;18.58;9.98;;;;;;;;;;5092171;28;20042;-57
2021/10/03 12:02:57;;;;;;;17.67;10.15;;;;;;;;;;5093448;28;20030;-60
2021/10/03 12:05:27;;;;;;;17.90;10.50;;;;;;;;;;5091882;28;20024;-58
2021/10/03 12:08:05;;;;;;;17.10;10.27;;;;;;;;;;5092676;28;20020;-60
2021/10/03 12:10:40;;;;;;;16.92;9.63;;;;;;;;;;5093140;28;20099;-59
2021/10/03 12:13:12;;;;;;;16.75;9.80;;;;;;;;;;5093284;28;20212;-58
2021/10/03 12:15:38;;;;;;;16.77;9.40;;;;;;;;;;5093125;28;20032;-61
2021/10/03 12:18:05;;;;;;;17.85;9.18;;;;;;;;;;5093404;28;20035;-57
2021/10/03 12:20:51;;;;;;;18.63;9.00;;;;;;;;;;5091899;28;20024;-62
2021/10/03 12:23:20;;;;;;;17.48;9.45;;;;;;;;;;5089243;28;20451;-59
2021/10/03 12:25:47;;;;;;;18.27;9.63;;;;;;;;;;5081399;28;20056;-58
2021/10/03 12:28:13;;;;;;;18.45;8.77;;;;;;;;;;5081033;28;20031;-60
2021/10/03 12:30:52;;;;;;;17.33;9.00;;;;;;;;;;5082838;28;20028;-60
2021/10/03 12:33:18;;;;;;;17.50;9.63;;;;;;;;;;5081906;28;20016;-57
2021/10/03 12:35:59;;;;;;;17.65;9.65;;;;;;;;;;5082854;28;20240;-59
2021/10/03 12:38:25;;;;;;;17.13;8.95;;;;;;;;;;5079815;28;20024;-57
2021/10/03 12:40:51;;;;;;;17.02;8.52;;;;;;;;;;5082599;28;20054;-57
2021/10/03 12:43:20;;;;;;;17.52;8.77;;;;;;;;;;5081021;28;20396;-60
2021/10/03 12:45:46;;;;;;;17.27;8.48;;;;;;;;;;5082328;28;20028;-59
2021/10/03 12:48:14;;;;;;;18.13;8.43;;;;;;;;;;5083212;28;20039;-58
2021/10/03 12:50:40;;;;;;;15.88;7.95;;;;;;;;;;5083705;28;20031;-56
2021/10/03 12:53:06;;;;;;;16.90;8.60;;;;;;;;;;5082801;28;20020;-56
2021/10/03 12:55:32;;;;;;;17.45;7.45;;;;;;;;;;5080828;28;20515;-59
2021/10/03 12:57:58;;;;;;;19.17;8.38;;;;;;;;;;5082961;28;20218;-60
2021/10/03 13:00:27;;;;;;;16.42;7.80;;;;;;;;;;5081736;28;20540;-59
2021/10/03 13:02:55;;;;;;;18.45;8.13;;;;;;;;;;5091982;28;20020;-58
2021/10/03 13:05:21;;;;;;;19.00;8.80;;;;;;;;;;5090746;28;20024;-56
2021/10/03 13:07:47;;;;;;;18.05;8.07;;;;;;;;;;5091152;28;20039;-60
2021/10/03 13:10:13;;;;;;;16.58;8.43;;;;;;;;;;5091870;28;20020;-59
2021/10/03 13:12:41;;;;;;;18.42;7.97;;;;;;;;;;5092217;28;20044;-60
2021/10/03 13:15:11;;;;;;;18.80;8.10;;;;;;;;;;5091496;28;20054;-57
2021/10/03 13:17:38;;;;;;;20.95;8.98;;;;;;;;;;5091983;28;20032;-57
2021/10/03 13:20:08;;;;;;;17.35;7.85;;;;;;;;;;5091581;28;20089;-60
2021/10/03 13:22:34;;;;;;;17.98;8.10;;;;;;;;;;5092300;28;20420;-60
2021/10/03 13:25:00;;;;;;;17.38;8.50;;;;;;;;;;5090858;28;20059;-57
2021/10/03 13:27:26;;;;;;;16.10;7.68;;;;;;;;;;5090443;28;20073;-60
2021/10/03 13:29:52;;;;;;;17.67;8.10;;;;;;;;;;5091742;28;20023;-57
2021/10/03 13:32:19;;;;;;;17.30;7.78;;;;;;;;;;5091920;28;20129;-60
2021/10/03 13:34:45;;;;;;;17.83;8.68;;;;;;;;;;5091455;28;20065;-59
2021/10/03 13:37:11;;;;;;;16.70;8.57;;;;;;;;;;5090763;28;20032;-57
2021/10/03 13:39:37;;;;;;;17.65;8.38;;;;;;;;;;5090261;28;20028;-58
2021/10/03 13:42:04;;;;;;;17.08;9.00;;;;;;;;;;5091805;28;20095;-59
2021/10/03 13:44:30;;;;;;;17.98;8.65;;;;;;;;;;5091789;28;20024;-58
2021/10/03 13:47:00;;;;;;;18.00;8.30;;;;;;;;;;5091754;28;20095;-58
2021/10/03 13:49:27;;;;;;;18.83;8.63;;;;;;;;;;5091696;28;20020;-58
2021/10/03 13:51:53;;;;;;;17.83;9.25;;;;;;;;;;5091534;28;20020;-57
2021/10/03 13:54:19;;;;;;;17.45;7.45;;;;;;;;;;5091735;28;20044;-59
2021/10/03 13:56:45;;;;;;;19.17;8.45;;;;;;;;;;5090282;28;20032;-59
2021/10/03 13:59:11;;;;;;;16.10;8.32;;;;;;;;;;5091688;28;20416;-59
2021/10/03 14:01:37;;;;;;;16.45;8.20;;;;;;;;;;5091650;28;20084;-53
2021/10/03 14:04:03;;;;;;;17.33;8.57;;;;;;;;;;5090632;28;20126;-56
2021/10/03 14:06:32;;;;;;;18.58;7.90;;;;;;;;;;5091904;28;20036;-61
2021/10/03 14:08:58;;;;;;;17.88;7.50;;;;;;;;;;5090221;28;20021;-58
2021/10/03 14:11:24;;;;;;;16.38;7.53;;;;;;;;;;5092013;28;20064;-60
2021/10/03 14:13:53;;;;;;;18.08;8.75;;;;;;;;;;5091823;28;20495;-58
2021/10/03 14:16:19;;;;;;;17.30;8.50;;;;;;;;;;5089766;28;20020;-56
2021/10/03 14:18:45;;;;;;;15.73;7.68;;;;;;;;;;5091307;28;20024;-59
2021/10/03 14:21:11;;;;;;;18.30;7.65;;;;;;;;;;5090164;28;20107;-61
2021/10/03 14:23:37;;;;;;;16.63;7.45;;;;;;;;;;5091405;28;20055;-54
2021/10/03 14:26:03;;;;;;;16.05;7.30;;;;;;;;;;5091179;28;20456;-61
2021/10/03 14:28:33;;;;;;;24.67;8.13;;;;;;;;;;5091229;28;20036;-60
2021/10/03 14:30:59;;;;;;;17.08;8.05;;;;;;;;;;5091427;28;20453;-61
2021/10/03 14:33:27;;;;;;;16.30;7.35;;;;;;;;;;5095143;28;20024;-59
2021/10/03 14:35:53;;;;;;;17.33;7.47;;;;;;;;;;5095203;28;20062;-59
2021/10/03 14:38:22;;;;;;;16.00;7.38;;;;;;;;;;5094806;28;20024;-59
2021/10/03 14:40:48;;;;;;;16.77;7.63;;;;;;;;;;5095418;28;20028;-60
2021/10/03 14:43:14;;;;;;;16.10;8.00;;;;;;;;;;5095545;28;20024;-60
2021/10/03 14:45:40;;;;;;;17.85;8.05;;;;;;;;;;5094863;28;20031;-59
2021/10/03 14:48:06;;;;;;;15.05;6.82;;;;;;;;;;5093526;28;20031;-56
2021/10/03 14:50:32;;;;;;;16.23;7.90;;;;;;;;;;5094983;28;20016;-57
2021/10/03 14:52:58;;;;;;;19.98;8.55;;;;;;;;;;5093522;28;20112;-60
2021/10/03 14:55:24;;;;;;;16.17;7.60;;;;;;;;;;5094682;28;20066;-58
2021/10/03 14:57:50;;;;;;;15.70;7.00;;;;;;;;;;5093465;28;20031;-58
2021/10/03 15:00:16;;;;;;;15.38;6.53;;;;;;;;;;5094456;28;20032;-60
2021/10/03 15:02:42;;;;;;;19.23;7.57;;;;;;;;;;5093329;28;20479;-61
2021/10/03 15:05:09;;;;;;;15.55;6.97;;;;;;;;;;5094545;28;20027;-57
2021/10/03 15:07:40;;;;;;;15.63;6.75;;;;;;;;;;5093261;28;20050;-58
2021/10/03 15:10:13;;;;;;;15.75;6.60;;;;;;;;;;5094431;28;20031;-58
2021/10/03 15:12:43;;;;;;;15.77;7.00;;;;;;;;;;5093061;28;20042;-56
2021/10/03 15:15:09;;;;;;;14.90;6.30;;;;;;;;;;5094295;28;20016;-57
2021/10/03 15:17:36;;;;;;;15.68;7.15;;;;;;;;;;5093821;28;20028;-59
2021/10/03 15:20:04;;;;;;;15.60;6.25;;;;;;;;;;5093029;28;20032;-59
2021/10/03 15:22:30;;;;;;;15.63;6.80;;;;;;;;;;5093304;28;20047;-58
2021/10/03 15:24:56;;;;;;;16.42;6.53;;;;;;;;;;5093010;28;20083;-57
2021/10/03 15:27:22;;;;;;;16.00;7.00;;;;;;;;;;5094107;28;20510;-58
2021/10/03 15:29:49;;;;;;;15.90;6.35;;;;;;;;;;5093833;28;20020;-58
2021/10/03 15:32:15;;;;;;;16.23;6.53;;;;;;;;;;5094503;28;20043;-58
2021/10/03 15:34:41;;;;;;;16.17;6.63;;;;;;;;;;5095131;28;20480;-60
2021/10/03 15:37:07;;;;;;;15.85;6.97;;;;;;;;;;5093305;28;20023;-58
2021/10/03 15:39:33;;;;;;;14.57;6.60;;;;;;;;;;5094438;28;20023;-60
2021/10/03 15:41:59;;;;;;;16.15;6.35;;;;;;;;;;5092894;28;20019;-59
2021/10/03 15:44:25;;;;;;;19.63;6.50;;;;;;;;;;5093854;28;20107;-59
2021/10/03 15:46:52;;;;;;;15.55;6.55;;;;;;;;;;5092168;28;20700;-57
2021/10/03 15:49:18;;;;;;;14.40;6.50;;;;;;;;;;5093449;28;20491;-57
2021/10/03 15:51:44;;;;;;;13.48;6.22;;;;;;;;;;5093741;28;20484;-59
2021/10/03 15:54:11;;;;;;;14.60;6.07;;;;;;;;;;5092436;28;20023;-57
2021/10/03 15:56:37;;;;;;;15.90;6.47;;;;;;;;;;5093449;28;20542;-58
2021/10/03 15:59:02;;;;;;;13.75;5.68;;;;;;;;;;5092065;28;20501;-57
2021/10/03 16:01:29;;;;;;;14.90;5.90;;;;;;;;;;5092564;28;20110;-57
2021/10/03 16:03:55;;;;;;;14.13;5.90;;;;;;;;;;5093332;28;20468;-58
2021/10/03 16:06:21;;;;;;;14.38;5.30;;;;;;;;;;5091757;28;20115;-60
2021/10/03 16:08:47;;;;;;;17.38;7.28;;;;;;;;;;5093040;28;20436;-54
2021/10/03 16:11:13;;;;;;;23.63;21.42;;;;;;;;;;5091723;28;20028;-54
2021/10/03 16:13:39;;;;;;;26.55;24.35;;;17.70;99.90;;;;;;5093399;28;20031;-58
2021/10/03 16:16:06;;;;;;;24.17;22.02;;;16.20;99.90;;;;;;5091788;28;20020;-56
2021/10/03 16:18:32;;;;;;;20.60;18.70;;;;;;;;;;5093010;28;20024;-56
2021/10/03 16:20:58;;;;;;;19.50;17.50;;;;;;;;;;5092605;28;20549;-52
2021/10/03 16:23:27;;;;;;;18.35;16.45;;;;;;;;;;5093016;28;20024;-56
2021/10/03 16:25:57;;;;;;;18.70;16.90;;;;;;;;;;5093020;28;20364;-59
2021/10/03 16:28:23;;;;;;;16.20;14.50;;;;;;;;;;5093126;28;20058;-56
2021/10/03 16:30:49;;;;;;;16.17;13.98;;;;;;;;;;5091959;28;20035;-57
2021/10/03 16:33:15;;;;;;;16.05;14.35;;;;;;;;;;5092994;28;20021;-57
2021/10/03 16:35:41;;;;;;;16.05;13.18;;;;;;;;;;5093217;28;20039;-58
2021/10/03 16:38:07;;;;;;;15.20;12.70;;;;;;;;;;5092077;28;20476;-57
2021/10/03 16:40:33;;;;;;;15.05;12.20;;;;;;;;;;5092193;28;20032;-56
2021/10/03 16:43:00;;;;;;;14.88;11.48;;;;;;;;;;5092830;28;20020;-56
2021/10/03 16:45:28;;;;;;;14.95;11.30;;;;;;;;;;5093005;28;20020;-60
2021/10/03 16:47:55;;;;;;;15.00;11.30;;;;;;;;;;5093028;28;20387;-58
2021/10/03 16:50:21;;;;;;;15.07;11.20;;;;;;;;;;5091494;28;20031;-58
2021/10/03 16:52:47;;;;;;;15.40;10.88;;;;;;;;;;5092945;28;20031;-59
2021/10/03 16:55:13;;;;;;;15.23;11.15;;;;;;;;;;5092733;28;20028;-61
2021/10/03 16:57:39;;;;;;;15.55;12.15;;;;;;;;;;5092909;28;20077;-60
2021/10/03 17:00:05;;;;;;;15.35;11.07;;;;;;;;;;5091090;28;20495;-62
2021/10/03 17:02:32;;;;;;;15.40;11.20;;;;;;;;;;5092696;28;20046;-59
2021/10/03 17:04:58;;;;;;;16.42;11.50;;;;;;;;;;5092827;28;20532;-59
2021/10/03 17:07:24;;;;;;;16.02;10.52;;;;;;;;;;5092489;28;20028;-58
2021/10/03 17:09:50;;;;;;;15.70;10.50;;;;;;;;;;5090909;28;20494;-59
2021/10/03 17:12:16;;;;;;;15.48;11.15;;;;;;;;;;5092706;28;20019;-60
2021/10/03 17:14:42;;;;;;;16.83;13.35;;;;;;;;;;5092618;28;20024;-61
2021/10/03 17:17:08;;;;;;;15.80;12.10;;;;;;;;;;5092472;28;20527;-60
2021/10/03 17:19:34;;;;;;;14.35;10.13;;;;;;;;;;5092265;28;20032;-61
2021/10/03 17:22:00;;;;;;;14.98;10.43;;;;;;;;;;5092469;28;20112;-60
2021/10/03 17:24:26;;;;;;;14.45;9.95;;;;;;;;;;5091931;28;20145;-60
2021/10/03 17:26:52;;;;;;;14.20;9.50;;;;;;;;;;5072312;28;20524;-60
2021/10/03 17:29:18;;;;;;;14.40;10.30;;;;;;;;;;5100120;22;20138;-62
2021/10/03 17:31:44;;;;;;;14.50;9.60;;;;;;;;;;5050428;28;20470;-61
2021/10/03 17:34:10;;;;;;;15.30;9.52;;;;;;;;;;5050888;28;20079;-62
2021/10/03 17:36:37;;;;;;;15.45;9.68;;;;;;;;;;5051250;28;20028;-61
2021/10/03 17:39:03;;;;;;;14.50;9.70;;;;;;;;;;5036348;28;20113;-61
2021/10/03 17:41:29;;;;;;;15.00;9.77;;;;;;;;;;5050765;28;20453;-60
2021/10/03 17:43:55;;;;;;;15.85;10.40;;;;;;;;;;5049826;28;20047;-61
2021/10/03 17:46:21;;;;;;;15.35;10.00;;;;;;;;;;5048923;28;20108;-59
2021/10/03 17:48:48;;;;;;;15.23;10.32;;;;;;;;;;5048891;28;20021;-62
2021/10/03 17:51:14;;;;;;;15.90;10.05;;;;;;;;;;5049335;28;20461;-60
2021/10/03 17:53:41;;;;;;;15.15;9.68;;;;;;;;;;5050274;28;20021;-63
2021/10/03 17:56:07;;;;;;;15.63;10.13;;;;;;;;;;5050321;28;20441;-62
2021/10/03 17:58:33;;;;;;;15.18;10.00;;;;;;;;;;5049999;28;20020;-63
2021/10/03 18:01:00;;;;;;;15.15;10.25;;;;;;;;;;5049076;28;20021;-62
2021/10/03 18:03:26;;;;;;;15.00;9.77;;;;;;;;;;5049435;28;20508;-60
2021/10/03 18:05:52;;;;;;;15.80;10.20;;;;;;;;;;5048652;28;20025;-62
2021/10/03 18:08:18;;;;;;;15.10;9.70;;;;;;;;;;5053026;28;20021;-63
2021/10/03 18:10:44;;;;;;;16.30;9.80;;;;;;;;;;5053084;28;20021;-61
2021/10/03 18:13:11;;;;;;;15.65;10.35;;;;;;;;;;5054320;28;20027;-62
2021/10/03 18:15:38;;;;;;;14.85;9.50;;;;;;;;;;5054221;28;20025;-63
2021/10/03 18:18:05;;;;;;;14.30;8.60;;;;;;;;;;5054082;28;20029;-62
2021/10/03 18:20:33;;;;;;;14.60;8.90;;;;;;;;;;5052417;28;20122;-61
2021/10/03 18:22:59;;;;;;;17.02;8.48;;;;;;;;;;5054283;28;20074;-62
2021/10/03 18:25:25;;;;;;;14.07;8.43;;;;;;;;;;5053954;28;20025;-62
2021/10/03 18:27:51;;;;;;;14.10;8.20;;;;;;;;;;5052812;28;20552;-63
2021/10/03 18:30:17;;;;;;;14.38;8.43;;;;;;;;;;5052545;28;20116;-62
2021/10/03 18:32:48;;;;;;;14.50;8.05;;;;;;;;;;5053685;28;20017;-63
2021/10/03 18:35:14;;;;;;;15.00;8.02;;;;;;;;;;5053999;28;20029;-64
2021/10/03 18:37:42;;;;;;;14.35;7.90;;;;;;;;;;5054134;28;20040;-62
2021/10/03 18:40:08;;;;;;;14.35;8.00;;;;;;;;;;5052052;28;20082;-61
2021/10/03 18:42:34;;;;;;;16.42;8.00;;;;;;;;;;5053795;28;20151;-64
2021/10/03 18:45:00;;;;;;;16.05;8.63;;;;;;;;;;5053457;28;20159;-60
2021/10/03 18:47:26;;;;;;;15.43;8.13;;;;;;;;;;5053552;28;20036;-62
2021/10/03 18:49:52;;;;;;;15.35;8.10;;;;;;;;;;5053420;28;20088;-63
2021/10/03 18:52:18;;;;;;;13.93;7.82;;;;;;;;;;5053668;28;20480;-63
2021/10/03 18:54:44;;;;;;;14.95;7.40;;;;;;;;;;5053554;28;20021;-64
2021/10/03 18:57:10;;;;;;;15.43;7.45;;;;;;;;;;5052399;28;20087;-62
2021/10/03 18:59:37;;;;;;;14.35;6.82;;;;;;;;;;5053464;28;20064;-64
2021/10/03 19:02:03;;;;;;;14.63;6.60;;;;;;;;;;5053483;28;20044;-62
2021/10/03 19:04:30;;;;;;;14.00;6.00;;;;;;;;;;5053463;28;20021;-62
2021/10/03 19:06:55;;;;;;;12.90;5.55;;;;;;;;;;5051907;28;20041;-62
2021/10/03 19:09:22;;;;;;;13.52;5.15;;;;;;;;;;5051634;28;20081;-64
2021/10/03 19:11:48;;;;;;;14.15;5.50;;;;;;;;;;5053456;28;20017;-64
2021/10/03 19:14:14;;;;;;;11.68;4.82;;;;;;;;;;5053288;28;20092;-66
2021/10/03 19:16:40;;;;;;;13.77;5.32;;;;;;;;;;5051827;28;20021;-63
2021/10/03 19:19:06;;;;;;;14.00;5.40;;;;;;;;;;5050969;28;20033;-64
2021/10/03 19:21:32;;;;;;;14.20;5.78;;;;;;;;;;5052037;28;20443;-63
2021/10/03 19:24:01;;;;;;;14.77;5.47;;;;;;;;;;5051835;28;20075;-64
2021/10/03 19:26:28;;;;;;;13.95;5.57;;;;;;;;;;5052938;28;20075;-64
2021/10/03 19:28:54;;;;;;;14.95;5.88;;;;;;;;;;5052573;28;20255;-63
2021/10/03 19:31:23;;;;;;;14.63;6.47;;;;;;;;;;5052968;28;20023;-63
2021/10/03 19:33:49;;;;;;;16.92;6.45;;;;;;;;;;5052954;28;20056;-63
2021/10/03 19:36:15;;;;;;;16.08;6.68;;;;;;;;;;5052996;28;20036;-64
2021/10/03 19:38:41;;;;;;;17.60;6.75;;;;;;;;;;5052497;28;20397;-64
2021/10/03 19:41:07;;;;;;;18.15;7.43;;;;;;;;;;5052636;28;20469;-65
2021/10/03 19:43:33;;;;;;;16.00;7.20;;;;;;;;;;5052721;28;20036;-64
2021/10/03 19:45:59;;;;;;;18.15;7.70;;;;;;;;;;5051363;28;20032;-65
2021/10/03 19:48:26;;;;;;;18.75;8.57;;;;;;;;;;5051283;28;20033;-63
2021/10/03 19:50:52;;;;;;;18.17;8.23;;;;;;;;;;5052522;28;20024;-62
2021/10/03 19:53:18;;;;;;;16.42;7.07;;;;;;;;;;5052503;28;20078;-64
2021/10/03 19:55:44;;;;;;;18.02;8.60;;;;;;;;;;5052400;28;20123;-63
2021/10/03 19:58:10;;;;;;;18.00;8.15;;;;;;;;;;5052307;28;20386;-62
2021/10/03 20:00:36;;;;;;;17.88;7.82;;;;;;;;;;5052418;28;20044;-64
2021/10/03 20:03:02;;;;;;;17.30;7.70;;;;;;;;;;5051006;28;20025;-64
2021/10/03 20:05:28;;;;;;;20.23;8.13;;;;;;;;;;5050938;28;20025;-64
2021/10/03 20:07:55;;;;;;;17.20;8.07;;;;;;;;;;5050643;28;20057;-64
2021/10/03 20:10:21;;;;;;;18.60;8.48;;;;;;;;;;5051862;28;20046;-63
2021/10/03 20:12:47;;;;;;;18.48;8.25;;;;;;;;;;5052150;28;20100;-63
2021/10/03 20:15:13;;;;;;;18.15;9.43;;;;;;;;;;5052208;28;20102;-63
2021/10/03 20:17:40;;;;;;;17.42;8.23;;;;;;;;;;5050614;28;20025;-62
2021/10/03 20:20:07;;;;;;;17.90;8.68;;;;;;;;;;5051800;28;20029;-64
2021/10/03 20:22:33;;;;;;;20.73;9.38;;;;;;;;;;5050540;28;20029;-63
2021/10/03 20:24:59;;;;;;;21.45;9.88;;;;;;;;;;5051827;28;20038;-60
2021/10/03 20:27:26;;;;;;;18.98;8.48;;;;;;;;;;5050749;28;20031;-63
2021/10/03 20:29:53;;;;;;;18.92;9.48;;;;;;;;;;5050721;28;20447;-64
2021/10/03 20:32:19;;;;;;;18.05;8.38;;;;;;;;;;5051819;28;20071;-63
2021/10/03 20:34:45;;;;;;;18.35;9.38;;;;;;;;;;5050611;28;20025;-64
2021/10/03 20:37:11;;;;;;;20.98;9.38;;;;;;;;;;5050864;28;20122;-63
2021/10/03 20:39:37;;;;;;;22.02;8.98;;;;;;;;;;5051384;28;20099;-63
2021/10/03 20:42:05;;;;;;;20.55;9.57;;;;;;;;;;5050675;28;20485;-63
2021/10/03 20:44:31;;;;;;;19.35;9.35;;;;;;;;;;5051517;28;20036;-65
2021/10/03 20:46:57;;;;;;;19.63;9.38;;;;;;;;;;5051566;28;20024;-64
2021/10/03 20:49:23;;;;;;;19.15;9.80;;;;;;;;;;5051215;28;20028;-64
2021/10/03 20:51:50;;;;;;;19.95;9.07;;;;;;;;;;5051361;28;20017;-64
2021/10/03 20:54:16;;;;;;;21.30;9.00;;;;;;;;;;5050338;28;20036;-64
2021/10/03 20:56:42;;;;;;;20.90;9.52;;;;;;;;;;5051466;28;20505;-63
2021/10/03 20:59:08;;;;;;;19.42;8.20;;;;;;;;;;5051133;28;20405;-63
2021/10/03 21:01:34;;;;;;;19.88;9.52;;;;;;;;;;5050198;28;20036;-64
2021/10/03 21:04:00;;;;;;;24.00;9.15;;;;;;;;;;5051195;28;20071;-64
2021/10/03 21:06:26;;;;;;;21.00;9.38;;;;;;;;;;5051294;28;20044;-64
2021/10/03 21:08:52;;;;;;;19.17;8.20;;;;;;;;;;5050601;28;20029;-64
2021/10/03 21:11:18;;;;;;;20.48;9.10;;;;;;;;;;5051734;28;20071;-65
2021/10/03 21:13:44;;;;;;;21.55;9.40;;;;;;;;;;5051557;28;20021;-64
2021/10/03 21:16:11;;;;;;;20.42;8.32;;;;;;;;;;5051520;28;20101;-64
2021/10/03 21:18:37;;;;;;;17.88;7.57;;;;;;;;;;5049846;28;20486;-64
2021/10/03 21:21:03;;;;;;;20.33;8.77;;;;;;;;;;5049749;28;20178;-64
2021/10/03 21:23:29;;;;;;;19.77;8.68;;;;;;;;;;5049696;28;20066;-64
2021/10/03 21:25:55;;;;;;;21.27;8.85;;;;;;;;;;5051010;28;20029;-64
2021/10/03 21:28:21;;;;;;;18.75;8.88;;;;;;;;;;5050558;28;20025;-65
2021/10/03 21:30:47;;;;;;;21.52;8.55;;;;;;;;;;5050984;28;20032;-66
2021/10/03 21:33:13;;;;;;;17.23;7.72;;;;;;;;;;5046421;28;20021;-64
2021/10/03 21:35:39;;;;;;;21.35;8.25;;;;;;;;;;5031117;28;20035;-65
2021/10/03 21:38:05;;;;;;;18.63;7.53;;;;;;;;;;5031164;28;20121;-65
2021/10/03 21:40:31;;;;;;;21.55;8.57;;;;;;;;;;5029629;28;20033;-64
2021/10/03 21:42:57;;;;;;;17.75;7.72;;;;;;;;;;5029484;28;20478;-64
2021/10/03 21:45:23;;;;;;;20.98;8.30;;;;;;;;;;5029383;28;20037;-65
2021/10/03 21:47:49;;;;;;;18.05;7.10;;;;;;;;;;5029715;28;20515;-61
2021/10/03 21:50:15;;;;;;;18.10;8.10;;;;;;;;;;5029170;28;20022;-63
2021/10/03 21:52:42;;;;;;;21.63;6.97;;;;;;;;;;5030396;28;20026;-63
2021/10/03 21:55:09;;;;;;;16.40;7.35;;;;;;;;;;5030976;28;20025;-64
2021/10/03 21:57:35;;;;;;;17.08;7.13;;;;;;;;;;5029561;28;20025;-63
2021/10/03 22:00:01;;;;;;;19.17;6.53;;;;;;;;;;5030350;28;20507;-64
2021/10/03 22:02:27;;;;;;;20.27;7.35;;;;;;;;;;5029674;28;20116;-63
2021/10/03 22:04:53;;;;;;;17.40;7.45;;;;;;;;;;5030638;28;20021;-62
2021/10/03 22:07:19;;;;;;;17.80;6.78;;;;;;;;;;5030650;28;20445;-62
2021/10/03 22:09:46;;;;;;;17.17;7.45;;;;;;;;;;5029914;28;20494;-64
2021/10/03 22:12:12;;;;;;;16.48;7.07;;;;;;;;;;5029089;28;20108;-64
2021/10/03 22:14:38;;;;;;;18.02;7.25;;;;;;;;;;5029082;28;20053;-64
2021/10/03 22:17:04;;;;;;;17.02;6.50;;;;;;;;;;5029322;28;20476;-65
2021/10/03 22:19:30;;;;;;;17.45;6.60;;;;;;;;;;5030105;28;20029;-65
2021/10/03 22:21:56;;;;;;;17.40;6.35;;;;;;;;;;5030395;28;20041;-64
2021/10/03 22:24:22;;;;;;;16.50;6.68;;;;;;;;;;5029305;28;20132;-64
2021/10/03 22:26:48;;;;;;;16.50;6.13;;;;;;;;;;5030324;28;20029;-64
2021/10/03 22:29:14;;;;;;;15.10;6.22;;;;;;;;;;5028887;28;20052;-63
2021/10/03 22:31:40;;;;;;;16.73;6.50;;;;;;;;;;5030404;28;20457;-64
2021/10/03 22:34:07;;;;;;;17.08;5.80;;;;;;;;;;5028931;28;20029;-63
2021/10/03 22:36:33;;;;;;;19.02;5.75;;;;;;;;;;5030234;28;20026;-63
2021/10/03 22:39:00;;;;;;;15.52;6.05;;;;;;;;;;5028552;28;20075;-64
2021/10/03 22:41:26;;;;;;;17.00;5.80;;;;;;;;;;5030269;28;20037;-65
2021/10/03 22:43:53;;;;;;;16.30;5.85;;;;;;;;;;5030259;28;20022;-64
2021/10/03 22:46:19;;;;;;;16.15;5.72;;;;;;;;;;5030199;28;20026;-64
2021/10/03 22:48:45;;;;;;;15.68;5.03;;;;;;;;;;5028639;28;20022;-64
2021/10/03 22:51:11;;;;;;;15.38;5.90;;;;;;;;;;5028837;28;20022;-63
2021/10/03 22:53:37;;;;;;;15.23;5.88;;;;;;;;;;5032266;28;20488;-64
2021/10/03 22:56:03;;;;;;;15.20;5.50;;;;;;;;;;5032322;28;20022;-63
2021/10/03 22:58:29;;;;;;;14.90;5.82;;;;;;;;;;5031989;28;20048;-64
2021/10/03 23:00:56;;;;;;;16.27;5.78;;;;;;;;;;5033710;28;20497;-64
2021/10/03 23:03:22;;;;;;;15.82;6.15;;;;;;;;;;5033757;28;20094;-65
2021/10/03 23:05:48;;;;;;;16.35;6.05;;;;;;;;;;5032309;28;20091;-63
2021/10/03 23:08:14;;;;;;;15.18;5.60;;;;;;;;;;5032749;28;20119;-63
2021/10/03 23:10:40;;;;;;;15.15;5.30;;;;;;;;;;5033643;28;20393;-63
2021/10/03 23:13:06;;;;;;;15.25;5.57;;;;;;;;;;5032259;28;20034;-64
2021/10/03 23:15:34;;;;;;;14.35;5.05;;;;;;;;;;5033383;28;20460;-64
2021/10/03 23:18:01;;;;;;;15.73;5.05;;;;;;;;;;5033391;28;20374;-64
2021/10/03 23:20:26;;;;;;;13.73;5.25;;;;;;;;;;5032833;28;20033;-64
2021/10/03 23:22:52;;;;;;;17.58;5.28;;;;;;;;;;5033253;28;20495;-63
2021/10/03 23:25:18;;;;;;;17.13;5.40;;;;;;;;;;5031897;28;20029;-63
2021/10/03 23:27:45;;;;;;;15.60;5.45;;;;;;;;;;5033245;28;20072;-64
2021/10/03 23:30:11;;;;;;;18.30;5.35;;;;;;;;;;5094770;22;20101;-59
2021/10/03 23:32:38;;;;;;;16.77;5.28;;;;;;;;;;5076469;28;20016;-62
2021/10/03 23:35:05;;;;;;;13.73;5.15;;;;;;;;;;5094337;28;20028;-61
2021/10/03 23:37:31;;;;;;;14.30;5.20;;;;;;;;;;5094330;28;20468;-59
2021/10/03 23:39:57;;;;;;;13.77;4.85;;;;;;;;;;5075831;28;20092;-60
2021/10/03 23:42:24;;;;;;;15.70;4.80;;;;;;;;;;5075528;28;20552;-60
2021/10/03 23:44:50;;;;;;;13.23;4.93;;;;;;;;;;5076081;28;20031;-59
2021/10/03 23:47:17;;;;;;;14.65;4.85;;;;;;;;;;5094192;28;20028;-59
2021/10/03 23:49:43;;;;;;;16.38;4.57;;;;;;;;;;5093674;28;20373;-59
2021/10/03 23:52:11;;;;;;;12.88;4.50;;;;;;;;;;5094017;28;20055;-59
2021/10/03 23:54:37;;;;;;;14.38;4.82;;;;;;;;;;5094029;28;20023;-58
2021/10/03 23:57:04;;;;;;;13.68;5.00;;;;;;;;;;5094006;28;20107;-59
2021/10/03 23:59:30;;;;;;;15.48;4.82;;;;;;;;;;5075354;28;20496;-59
